Time;durP1;ratioP1;P1;durP2;ratioP2;P2;SDS_P1;SDS_P2;PMS_P1;PMS_P2;Temp;Humidity;BMP_temperature;BMP_pressure;BME280_temperature;BME280_humidity;BME280_pressure;Samples;Min_cycle;Max_cycle;Signal;HPM_P1;HPM_P2
2022/03/10 00:00:01;;;;;;;23.73;11.83;;;;;;;;;;5036338;28;20206;-32
2022/03/10 00:02:28;;;;;;;22.77;12.27;;;;;;;;;;5047361;28;20202;-32
2022/03/10 00:04:57;;;;;;;20.33;11.03;;;;;;;;;;5043577;28;20257;-31
2022/03/10 00:07:24;;;;;;;21.77;12.77;;;;;;;;;;5050972;28;20305;-33
2022/03/10 00:09:51;;;;;;;24.57;14.17;;;;;;;;;;5044801;28;20260;-31
2022/03/10 00:12:19;;;;;;;20.63;11.40;;;;;;;;;;5046396;28;20233;-32
2022/03/10 00:14:46;;;;;;;23.63;12.33;;;;;;;;;;5047269;28;20218;-34
2022/03/10 00:17:13;;;;;;;19.30;10.77;;;;;;;;;;5051025;28;20226;-33
2022/03/10 00:19:40;;;;;;;19.70;11.70;;;;;;;;;;5044328;28;20548;-35
2022/03/10 00:22:11;;;;;;;19.80;10.57;;;;;;;;;;5044731;28;20203;-31
2022/03/10 00:24:39;;;;;;;18.37;10.50;;;;;;;;;;5044661;28;20248;-32
2022/03/10 00:27:06;;;;;;;24.57;12.97;;;;;;;;;;5050484;28;20220;-32
2022/03/10 00:29:33;;;;;;;22.30;13.63;;;;;;;;;;5042619;28;20237;-33
2022/03/10 00:32:01;;;;;;;24.90;13.10;;;;;;;;;;5049380;28;20280;-34
2022/03/10 00:34:30;;;;;;;21.33;12.40;;;;;;;;;;5042341;28;20218;-38
2022/03/10 00:36:57;;;;;;;23.70;11.43;;;;;;;;;;5041813;28;20199;-30
2022/03/10 00:39:26;;;;;;;22.13;11.97;;;;;;;;;;5043070;28;20271;-34
2022/03/10 00:41:53;;;;;;;21.53;10.73;;;;;;;;;;5041827;28;20207;-33
2022/03/10 00:44:20;;;;;;;24.63;11.57;;;;;;;;;;5042963;28;20198;-32
2022/03/10 00:46:48;;;;;;;20.07;11.13;;;;;;;;;;5050305;28;20244;-33
2022/03/10 00:49:15;;;;;;;18.57;11.00;;;;;;;;;;5040157;28;20206;-31
2022/03/10 00:51:44;;;;;;;19.40;10.90;;;;;;;;;;5052556;28;20206;-37
2022/03/10 00:54:11;;;;;;;21.23;11.33;;;;;;;;;;5042829;28;20202;-32
2022/03/10 00:56:40;;;;;;;16.00;10.23;;;;;;;;;;5043172;28;20268;-36
2022/03/10 00:59:07;;;;;;;18.47;10.37;;;;;;;;;;5050356;28;20237;-36
2022/03/10 01:01:34;;;;;;;19.80;11.47;;;;;;;;;;5050899;28;20234;-33
2022/03/10 01:04:02;;;;;;;22.47;11.70;;;;;;;;;;5040225;28;20230;-36
2022/03/10 01:06:29;;;;;;;20.87;11.93;;;;;;;;;;5039988;28;20246;-31
2022/03/10 01:08:56;;;;;;;21.17;10.73;;;;;;;;;;5049070;28;20269;-29
2022/03/10 01:11:23;;;;;;;18.80;10.63;;;;;;;;;;5045224;28;20203;-33
2022/03/10 01:13:52;;;;;;;18.17;10.33;;;;;;;;;;5039378;28;20264;-36
2022/03/10 01:16:19;;;;;;;19.33;10.70;;;;;;;;;;5038607;28;20254;-35
2022/03/10 01:18:46;;;;;;;16.60;10.70;;;;;;;;;;5044944;28;20404;-32
2022/03/10 01:21:13;;;;;;;21.63;10.20;;;;;;;;;;5041873;28;20194;-33
2022/03/10 01:23:41;;;;;;;18.20;9.57;;;;;;;;;;5040801;28;20209;-32
2022/03/10 01:26:08;;;;;;;20.33;11.70;;;;;;;;;;5038721;28;20250;-30
2022/03/10 01:28:36;;;;;;;19.90;10.67;;;;;;;;;;5037841;28;20257;-33
2022/03/10 01:31:05;;;;;;;19.70;10.60;;;;;;;;;;5047428;28;20199;-33
2022/03/10 01:33:33;;;;;;;25.43;11.73;;;;;;;;;;5036497;28;20202;-31
2022/03/10 01:36:00;;;;;;;19.70;10.83;;;;;;;;;;5048586;28;20222;-29
2022/03/10 01:38:27;;;;;;;20.33;12.03;;;;;;;;;;5049930;28;20202;-32
2022/03/10 01:40:54;;;;;;;17.07;11.00;;;;;;;;;;5039806;28;20281;-32
2022/03/10 01:43:22;;;;;;;19.37;10.90;;;;;;;;;;5029970;28;20198;-34
2022/03/10 01:45:49;;;;;;;21.07;12.23;;;;;;;;;;5030693;28;20276;-31
2022/03/10 01:48:17;;;;;;;17.80;10.17;;;;;;;;;;5047092;28;20218;-34
2022/03/10 01:50:45;;;;;;;17.87;10.57;;;;;;;;;;5041521;28;20214;-32
2022/03/10 01:53:12;;;;;;;18.13;11.10;;;;;;;;;;5037299;28;20242;-30
2022/03/10 01:55:39;;;;;;;17.20;9.83;;;;;;;;;;5038529;28;20250;-35
2022/03/10 01:58:07;;;;;;;17.40;10.53;;;;;;;;;;5039952;28;20236;-36
2022/03/10 02:00:34;;;;;;;17.20;9.20;;;;;;;;;;5035299;28;20252;-33
2022/03/10 02:03:01;;;;;;;20.90;10.60;;;;;;;;;;5037018;28;20225;-32
2022/03/10 02:05:32;;;;;;;16.53;10.23;;;;;;;;;;5039026;28;20273;-31
2022/03/10 02:10:44;;;;;;;19.77;10.63;;;;;;;;;;5043914;28;20201;-35
2022/03/10 02:13:11;;;;;;;17.37;8.53;;;;;;;;;;5036950;28;20202;-31
2022/03/10 02:18:23;;;;;;;17.20;9.57;;;;;;;;;;5039775;28;20209;-34
2022/03/10 02:20:52;;;;;;;18.03;10.73;;;;;;;;;;5033976;28;20293;-30
2022/03/10 02:23:22;;;;;;;19.03;10.27;;;;;;;;;;5047831;28;20560;-33
2022/03/10 02:25:50;;;;;;;20.80;11.07;;;;;;;;;;5040482;28;20230;-32
2022/03/10 02:28:17;;;;;;;18.00;10.80;;;;;;;;;;5043912;28;20246;-31
2022/03/10 02:30:44;;;;;;;15.17;9.60;;;;;;;;;;5043728;28;20251;-34
2022/03/10 02:33:11;;;;;;;17.67;10.17;;;;;;;;;;5040067;28;20198;-36
2022/03/10 02:35:39;;;;;;;19.47;9.97;;;;;;;;;;5039660;28;20261;-37
2022/03/10 02:38:06;;;;;;;16.20;8.67;;;;;;;;;;5045574;28;20237;-32
2022/03/10 02:40:35;;;;;;;15.73;10.07;;;;;;;;;;5041127;28;20265;-35
2022/03/10 02:43:02;;;;;;;16.87;9.93;;;;;;;;;;5047750;28;20233;-30
2022/03/10 02:45:29;;;;;;;17.07;10.40;;;;;;;;;;5042299;28;20233;-33
2022/03/10 02:47:56;;;;;;;16.53;8.97;;;;;;;;;;5038346;28;20305;-31
2022/03/10 02:50:24;;;;;;;18.40;10.03;;;;;;;;;;5041923;28;20251;-39
2022/03/10 02:52:51;;;;;;;18.73;10.63;;;;;;;;;;5041846;28;20206;-29
2022/03/10 02:55:18;;;;;;;17.53;9.70;;;;;;;;;;5039950;28;20222;-33
2022/03/10 02:57:47;;;;;;;15.43;8.47;;;;;;;;;;5039892;28;20235;-32
2022/03/10 03:00:15;;;;;;;14.60;9.27;;;;;;;;;;5037699;28;20291;-33
2022/03/10 03:02:42;;;;;;;19.47;10.57;;;;;;;;;;5046032;28;20215;-32
2022/03/10 03:05:12;;;;;;;20.73;11.10;;;;;;;;;;5046444;28;20243;-33
2022/03/10 03:07:40;;;;;;;19.37;10.77;;;;;;;;;;5046610;28;20275;-30
2022/03/10 03:10:07;;;;;;;18.33;10.40;;;;;;;;;;5030602;28;20221;-33
2022/03/10 03:12:35;;;;;;;14.83;9.37;;;;;;;;;;5048297;28;20234;-36
2022/03/10 03:15:03;;;;;;;16.47;9.17;;;;;;;;;;5043655;28;20267;-33
2022/03/10 03:17:31;;;;;;;14.80;9.17;;;;;;;;;;5028406;28;20302;-36
2022/03/10 03:19:58;;;;;;;15.13;9.37;;;;;;;;;;5035010;28;20201;-30
2022/03/10 03:22:25;;;;;;;23.07;10.47;;;;;;;;;;5041885;28;20302;-33
2022/03/10 03:24:52;;;;;;;16.83;9.40;;;;;;;;;;5034569;28;20249;-30
2022/03/10 03:27:20;;;;;;;17.47;10.33;;;;;;;;;;5035908;28;20281;-33
2022/03/10 03:29:47;;;;;;;19.00;10.17;;;;;;;;;;5040331;28;20203;-34
2022/03/10 03:32:16;;;;;;;15.10;8.97;;;;;;;;;;5037598;28;20241;-31
2022/03/10 03:34:43;;;;;;;17.60;10.03;;;;;;;;;;5045273;28;20276;-32
2022/03/10 03:37:10;;;;;;;18.00;9.33;;;;;;;;;;5039825;28;20253;-35
2022/03/10 03:39:38;;;;;;;19.57;10.07;;;;;;;;;;5048057;28;20237;-33
2022/03/10 03:42:05;;;;;;;18.60;10.63;;;;;;;;;;5037308;28;20195;-32
2022/03/10 03:44:32;;;;;;;17.27;9.33;;;;;;;;;;5050540;28;20268;-36
2022/03/10 03:47:00;;;;;;;16.20;9.23;;;;;;;;;;5040202;28;20228;-34
2022/03/10 03:49:28;;;;;;;15.63;8.80;;;;;;;;;;5041869;28;20257;-34
2022/03/10 03:51:55;;;;;;;13.00;8.50;;;;;;;;;;5041596;28;20225;-32
2022/03/10 03:54:24;;;;;;;16.33;9.17;;;;;;;;;;5031940;28;20234;-33
2022/03/10 03:59:20;;;;;;;15.23;9.47;;;;;;;;;;5059549;28;20268;-37
2022/03/10 04:01:47;;;;;;;18.67;9.73;;;;;;;;;;5055008;28;20210;-33
2022/03/10 04:04:15;;;;;;;15.97;9.20;;;;;;;;;;5064278;28;20228;-39
2022/03/10 04:06:43;;;;;;;15.30;9.50;;;;;;;;;;5059336;28;20328;-36
2022/03/10 04:09:10;;;;;;;19.83;10.90;;;;;;;;;;5063227;28;20602;-35
2022/03/10 04:11:38;;;;;;;19.80;10.23;;;;;;;;;;5072072;28;20201;-37
2022/03/10 04:14:05;;;;;;;16.97;8.70;;;;;;;;;;5070912;28;20682;-40
2022/03/10 04:16:33;;;;;;;16.17;9.70;;;;;;;;;;5065770;28;20762;-38
2022/03/10 04:19:00;;;;;;;17.77;11.23;;;;;;;;;;5064949;28;20223;-38
2022/03/10 04:21:27;;;;;;;17.17;10.90;;;;;;;;;;5071929;28;20202;-40
2022/03/10 04:23:56;;;;;;;16.30;9.47;;;;;;;;;;5086813;28;20551;-35
2022/03/10 04:26:23;;;;;;;18.33;9.83;;;;;;;;;;5064669;28;20571;-40
2022/03/10 04:28:50;;;;;;;14.83;9.57;;;;;;;;;;5078898;28;20232;-37
2022/03/10 04:31:17;;;;;;;17.10;9.50;;;;;;;;;;5079644;28;20262;-38
2022/03/10 04:33:45;;;;;;;17.57;9.20;;;;;;;;;;5065601;28;20209;-35
2022/03/10 04:36:13;;;;;;;13.47;8.70;;;;;;;;;;5069652;28;20217;-35
2022/03/10 04:38:40;;;;;;;14.33;8.10;;;;;;;;;;5065684;28;20260;-34
2022/03/10 04:41:08;;;;;;;12.60;8.40;;;;;;;;;;5060227;28;20271;-35
2022/03/10 04:43:36;;;;;;;17.23;8.30;;;;;;;;;;5065983;28;20277;-34
2022/03/10 04:46:03;;;;;;;16.90;9.53;;;;;;;;;;5073292;28;20229;-32
2022/03/10 04:48:30;;;;;;;16.30;9.80;;;;;;;;;;5076956;28;20224;-37
2022/03/10 04:50:58;;;;;;;15.10;9.30;;;;;;;;;;5071115;28;20197;-38
2022/03/10 04:53:25;;;;;;;17.10;8.10;;;;;;;;;;5069668;28;20204;-31
2022/03/10 04:55:52;;;;;;;15.47;10.13;;;;;;;;;;5073361;28;20502;-37
2022/03/10 04:58:21;;;;;;;15.83;8.13;;;;;;;;;;5067297;28;20205;-35
2022/03/10 05:00:48;;;;;;;17.03;9.50;;;;;;;;;;5060303;28;20293;-39
2022/03/10 05:03:16;;;;;;;16.77;8.27;;;;;;;;;;5070782;28;20267;-38
2022/03/10 05:05:43;;;;;;;16.63;9.23;;;;;;;;;;5077479;28;20584;-39
2022/03/10 05:08:10;;;;;;;16.03;9.87;;;;;;;;;;5063809;28;20293;-36
2022/03/10 05:10:38;;;;;;;18.53;9.53;;;;;;;;;;5066321;28;20340;-30
2022/03/10 05:13:05;;;;;;;14.43;8.37;;;;;;;;;;5082263;28;20733;-38
2022/03/10 05:15:33;;;;;;;14.33;8.67;;;;;;;;;;5071171;28;20706;-36
2022/03/10 05:18:01;;;;;;;17.20;9.43;;;;;;;;;;5056998;28;20263;-36
2022/03/10 05:20:29;;;;;;;15.80;9.63;;;;;;;;;;5072371;28;20208;-37
2022/03/10 05:22:58;;;;;;;17.90;9.57;;;;;;;;;;5076753;28;20229;-39
2022/03/10 05:25:26;;;;;;;13.43;7.83;;;;;;;;;;5055191;28;20226;-42
2022/03/10 05:27:54;;;;;;;15.23;8.47;;;;;;;;;;5067380;28;20205;-38
2022/03/10 05:30:21;;;;;;;14.23;8.30;;;;;;;;;;5078523;28;20310;-35
2022/03/10 05:32:51;;;;;;;12.80;7.77;;;;;;;;;;5065837;28;20284;-40
2022/03/10 05:35:19;;;;;;;15.50;8.63;;;;;;;;;;5068236;28;20748;-39
2022/03/10 05:37:46;;;;;;;16.00;8.67;;;;;;;;;;5078949;28;20238;-42
2022/03/10 05:40:15;;;;;;;14.40;7.53;;;;;;;;;;5064174;28;20197;-36
2022/03/10 05:42:42;;;;;;;13.70;8.03;;;;;;;;;;5064148;28;20201;-39
2022/03/10 05:45:10;;;;;;;14.87;8.60;;;;;;;;;;5072242;28;20225;-37
2022/03/10 05:47:39;;;;;;;13.33;8.00;;;;;;;;;;5063292;28;20197;-32
2022/03/10 05:50:09;;;;;;;11.57;7.80;;;;;;;;;;5058647;28;20300;-40
2022/03/10 05:52:36;;;;;;;12.47;7.50;;;;;;;;;;5068044;28;20197;-35
2022/03/10 05:55:04;;;;;;;13.83;8.30;;;;;;;;;;5065329;28;20310;-35
2022/03/10 05:57:31;;;;;;;13.77;8.80;;;;;;;;;;5070224;28;20633;-38
2022/03/10 05:59:59;;;;;;;12.00;7.43;;;;;;;;;;5061451;28;20198;-35
2022/03/10 06:02:26;;;;;;;11.33;7.23;;;;;;;;;;5069711;28;20573;-35
2022/03/10 06:04:54;;;;;;;12.13;7.03;;;;;;;;;;5059163;28;20249;-40
2022/03/10 06:07:22;;;;;;;14.93;8.60;;;;;;;;;;5063448;28;20280;-38
2022/03/10 06:09:49;;;;;;;13.97;8.23;;;;;;;;;;5056013;28;20260;-37
2022/03/10 06:12:21;;;;;;;12.17;7.50;;;;;;;;;;5065297;28;20235;-33
2022/03/10 06:14:48;;;;;;;15.33;6.73;;;;;;;;;;5064392;28;20227;-37
2022/03/10 06:17:15;;;;;;;13.40;7.80;;;;;;;;;;5063979;28;20621;-36
2022/03/10 06:19:42;;;;;;;11.87;7.77;;;;;;;;;;5063447;28;20201;-33
2022/03/10 06:22:10;;;;;;;15.53;7.40;;;;;;;;;;5060242;28;20228;-36
2022/03/10 06:24:38;;;;;;;14.40;8.07;;;;;;;;;;5065574;28;20221;-33
2022/03/10 06:27:05;;;;;;;14.20;8.27;;;;;;;;;;5066122;28;20201;-34
2022/03/10 06:29:33;;;;;;;14.43;8.57;;;;;;;;;;5068617;28;20221;-34
2022/03/10 06:32:00;;;;;;;16.40;9.57;;;;;;;;;;5064154;28;20201;-37
2022/03/10 06:34:27;;;;;;;22.47;9.63;;;;;;;;;;5065311;28;20716;-44
2022/03/10 06:36:56;;;;;;;17.63;10.03;;;;;;;;;;5065037;28;20262;-35
2022/03/10 06:39:23;;;;;;;13.57;8.13;;;;;;;;;;5061048;28;20197;-35
2022/03/10 06:41:52;;;;;;;15.27;8.97;;;;;;;;;;5061704;28;20197;-35
2022/03/10 06:44:19;;;;;;;15.47;8.90;;;;;;;;;;5064065;28;20255;-41
2022/03/10 06:46:46;;;;;;;16.33;9.30;;;;;;;;;;5060924;28;20502;-37
2022/03/10 06:49:14;;;;;;;16.30;9.57;;;;;;;;;;5063493;28;20654;-36
2022/03/10 06:51:41;;;;;;;17.80;9.07;;;;;;;;;;5078373;28;20220;-45
2022/03/10 06:54:08;;;;;;;14.53;8.67;;;;;;;;;;5073649;28;20197;-37
2022/03/10 06:56:35;;;;;;;13.27;9.37;;;;;;;;;;5062262;28;20264;-46
2022/03/10 06:59:04;;;;;;;11.63;8.07;;;;;;;;;;5076877;28;20304;-36
2022/03/10 07:01:31;;;;;;;15.33;8.90;;;;;;;;;;5081492;28;20258;-36
2022/03/10 07:03:59;;;;;;;13.83;8.70;;;;;;;;;;5068246;28;20237;-36
2022/03/10 07:06:26;;;;;;;14.27;8.63;;;;;;;;;;5061199;28;20213;-37
2022/03/10 07:08:53;;;;;;;18.60;8.50;;;;;;;;;;5061887;28;20691;-35
2022/03/10 07:11:21;;;;;;;14.50;9.57;;;;;;;;;;5073152;28;20209;-41
2022/03/10 07:13:48;;;;;;;15.93;9.03;;;;;;;;;;5069766;28;20193;-34
2022/03/10 07:16:17;;;;;;;15.30;9.00;;;;;;;;;;5071405;28;20229;-33
2022/03/10 07:18:50;;;;;;;15.20;9.47;;;;;;;;;;5070078;28;20935;-39
2022/03/10 07:21:18;;;;;;;16.53;9.27;;;;;;;;;;5072710;28;20282;-39
2022/03/10 07:23:45;;;;;;;16.83;9.83;;;;;;;;;;5066370;28;20209;-37
2022/03/10 07:26:13;;;;;;;17.23;9.87;;;;;;;;;;5065482;28;20306;-38
2022/03/10 07:28:40;;;;;;;23.03;9.40;;;;;;;;;;5066787;28;20685;-37
2022/03/10 07:31:07;;;;;;;15.27;10.17;;;;;;;;;;5070392;28;20208;-32
2022/03/10 07:33:36;;;;;;;14.57;9.23;;;;;;;;;;5062920;28;20266;-44
2022/03/10 07:36:03;;;;;;;14.10;9.63;;;;;;;;;;5069552;28;20233;-44
2022/03/10 07:38:31;;;;;;;14.63;9.93;;;;;;;;;;5070310;28;20306;-38
2022/03/10 07:40:58;;;;;;;13.67;9.87;;;;;;;;;;5066115;28;20212;-40
2022/03/10 07:43:25;;;;;;;14.40;9.83;;;;;;;;;;5066876;28;20736;-37
2022/03/10 07:45:52;;;;;;;15.77;9.57;;;;;;;;;;5078078;28;20256;-41
2022/03/10 07:48:21;;;;;;;13.30;9.07;;;;;;;;;;5072286;28;20608;-32
2022/03/10 07:50:49;;;;;;;14.73;9.87;;;;;;;;;;5068760;28;20225;-37
2022/03/10 07:53:19;;;;;;;15.53;9.93;;;;;;;;;;5071809;28;20209;-35
2022/03/10 07:55:46;;;;;;;20.13;10.47;;;;;;;;;;5066982;28;20234;-36
2022/03/10 07:58:14;;;;;;;17.90;11.00;;;;;;;;;;5062213;28;20213;-38
2022/03/10 08:00:41;;;;;;;13.27;9.50;;;;;;;;;;5062533;28;20201;-35
2022/03/10 08:03:09;;;;;;;18.10;11.73;;;;;;;;;;5066897;28;20193;-41
2022/03/10 08:05:37;;;;;;;16.57;11.40;;;;;;;;;;5069467;28;20225;-35
2022/03/10 08:08:06;;;;;;;18.73;11.83;;;;;;;;;;5064802;28;20205;-35
2022/03/10 08:10:33;;;;;;;19.93;11.97;;;;;;;;;;5069210;28;20282;-41
2022/03/10 08:13:01;;;;;;;22.67;13.27;;;;;;;;;;5094441;28;20246;-38
2022/03/10 08:15:28;;;;;;;20.73;12.77;;;;;;;;;;5075906;28;20280;-42
2022/03/10 08:17:55;;;;;;;18.87;12.40;;;;;;;;;;5066496;28;20209;-35
2022/03/10 08:20:23;;;;;;;22.47;12.10;;;;;;;;;;5067331;28;20743;-36
2022/03/10 08:22:50;;;;;;;23.57;13.37;;;;;;;;;;5073954;28;20205;-39
2022/03/10 08:25:19;;;;;;;21.27;13.07;;;;;;;;;;5069726;28;20221;-41
2022/03/10 08:27:47;;;;;;;17.57;11.00;;;;;;;;;;5069754;28;20213;-37
2022/03/10 08:30:15;;;;;;;19.77;12.00;;;;;;;;;;5069229;28;20237;-35
2022/03/10 08:32:42;;;;;;;17.43;11.73;;;;;;;;;;5065815;28;20206;-38
2022/03/10 08:35:10;;;;;;;17.00;11.30;;;;;;;;;;5050054;28;20233;-43
2022/03/10 08:37:38;;;;;;;16.53;11.20;;;;;;;;;;5061407;28;20252;-36
2022/03/10 08:40:06;;;;;;;17.33;11.10;;;;;;;;;;5064938;28;20210;-35
2022/03/10 08:42:35;;;;;;;16.93;11.50;;;;;;;;;;5066815;28;20205;-37
2022/03/10 08:45:02;;;;;;;17.00;11.50;;;;;;;;;;5058196;28;20229;-38
2022/03/10 08:47:30;;;;;;;20.63;12.00;;;;;;;;;;5078311;28;20209;-35
2022/03/10 08:49:57;;;;;;;18.17;12.17;;;;;;;;;;5069394;28;20225;-35
2022/03/10 08:52:25;;;;;;;18.87;11.67;;;;;;;;;;5074300;28;20205;-37
2022/03/10 08:54:52;;;;;;;20.30;11.27;;;;;;;;;;5065642;28;20225;-36
2022/03/10 08:57:19;;;;;;;14.80;10.20;;;;;;;;;;5063543;28;20674;-36
2022/03/10 08:59:48;;;;;;;13.10;9.73;;;;;;;;;;5078059;28;20232;-31
2022/03/10 09:02:15;;;;;;;16.67;9.77;;;;;;;;;;5067070;28;20433;-43
2022/03/10 09:04:42;;;;;;;12.83;9.13;;;;;;;;;;5075903;28;20233;-37
2022/03/10 09:07:10;;;;;;;13.87;8.47;;;;;;;;;;5074026;28;20452;-34
2022/03/10 09:09:37;;;;;;;14.27;8.67;;;;;;;;;;5070550;28;20244;-34
2022/03/10 09:12:05;;;;;;;14.07;8.47;;;;;;;;;;5065198;28;20205;-35
2022/03/10 09:14:32;;;;;;;14.67;9.17;;;;;;;;;;5071590;28;20294;-38
2022/03/10 09:17:01;;;;;;;11.57;8.43;;;;;;;;;;5080074;28;20216;-38
2022/03/10 09:19:28;;;;;;;14.13;8.43;;;;;;;;;;5064083;28;20206;-35
2022/03/10 09:21:55;;;;;;;11.40;7.90;;;;;;;;;;5064582;28;20205;-31
2022/03/10 09:24:22;;;;;;;11.73;7.43;;;;;;;;;;5069792;28;20608;-30
2022/03/10 09:26:50;;;;;;;10.43;7.50;;;;;;;;;;5070705;28;20217;-39
2022/03/10 09:29:17;;;;;;;11.57;7.10;;;;;;;;;;5066887;28;20237;-37
2022/03/10 09:31:44;;;;;;;10.57;7.27;;;;;;;;;;5065822;28;20312;-36
2022/03/10 09:34:13;;;;;;;7.80;6.13;;;;;;;;;;5072620;28;20228;-33
2022/03/10 09:36:40;;;;;;;6.27;4.87;;;;;;;;;;5065259;28;20655;-38
2022/03/10 09:39:09;;;;;;;6.53;4.30;;;;;;;;;;5057255;28;20307;-40
2022/03/10 09:41:39;;;;;;;4.43;3.40;;;;;;;;;;5068286;28;21102;-39
2022/03/10 09:44:10;;;;;;;8.37;3.40;;;;;;;;;;5075300;28;20216;-35
2022/03/10 09:46:38;;;;;;;3.67;3.10;;;;;;;;;;5054436;28;20253;-36
2022/03/10 09:49:05;;;;;;;3.77;3.07;;;;;;;;;;5065125;28;20295;-36
2022/03/10 09:51:34;;;;;;;4.23;3.20;;;;;;;;;;5069245;28;20274;-35
2022/03/10 09:54:01;;;;;;;3.03;2.77;;;;;;;;;;5065156;28;20216;-39
2022/03/10 09:56:30;;;;;;;3.00;2.60;;;;;;;;;;5069230;28;20264;-37
2022/03/10 09:58:57;;;;;;;3.20;2.70;;;;;;;;;;5070943;28;20292;-37
2022/03/10 10:01:25;;;;;;;4.60;2.83;;;;;;;;;;5064064;28;20928;-33
2022/03/10 10:03:52;;;;;;;6.20;3.00;;;;;;;;;;5061585;28;20205;-32
2022/03/10 10:06:19;;;;;;;3.67;2.90;;;;;;;;;;5072075;28;20312;-38
2022/03/10 10:08:54;;;;;;;3.90;2.80;;;;;;;;;;5075835;28;20209;-34
2022/03/10 10:11:30;;;;;;;3.63;2.60;;;;;;;;;;5069316;28;20312;-37
2022/03/10 10:13:57;;;;;;;3.47;2.70;;;;;;;;;;5066706;28;20225;-33
2022/03/10 10:16:25;;;;;;;3.60;2.70;;;;;;;;;;5074067;28;20305;-34
2022/03/10 10:18:55;;;;;;;4.67;2.63;;;;;;;;;;5081368;28;20288;-34
2022/03/10 10:31:40;;;;;;;2.70;2.47;;;;;;;;;;5021021;28;20233;-26
2022/03/10 10:36:10;;;;;;;2.13;1.90;;;;;;;;;;5142193;27;20314;-36
2022/03/10 10:38:38;;;;;;;3.50;2.50;;;;;;;;;;5139499;27;20215;-36
2022/03/10 10:41:19;;;;;;;5.10;2.97;;;;;;;;;;5139529;27;20198;-37
2022/03/10 10:43:47;;;;;;;5.60;3.00;;;;;;;;;;5141865;27;20207;-39
2022/03/10 10:46:39;;;;;;;3.90;2.77;;;;;;;;;;5143126;27;20246;-33
2022/03/10 10:49:07;;;;;;;3.57;2.60;;;;;;;;;;5124093;27;20213;-35
2022/03/10 10:51:36;;;;;;;3.60;2.60;;;;;;;;;;5136993;27;20256;-28
2022/03/10 10:54:06;;;;;;;4.43;2.73;;;;;;;;;;5138615;27;20244;-34
2022/03/10 10:56:34;;;;;;;3.40;3.10;;;;;;;;;;5138411;27;20277;-35
2022/03/10 10:59:03;;;;;;;3.37;2.70;;;;;;;;;;5153065;27;20199;-38
2022/03/10 11:01:31;;;;;;;5.87;2.90;;;;;;;;;;5147031;27;20227;-37
2022/03/10 11:03:58;;;;;;;2.90;2.30;;;;;;;;;;5142367;27;20287;-34
2022/03/10 11:06:25;;;;;;;4.00;2.40;;;;;;;;;;5143783;27;20217;-33
2022/03/10 11:08:53;;;;;;;2.87;2.60;;;;;;;;;;5157374;27;20216;-36
2022/03/10 11:11:22;;;;;;;4.53;3.07;;;;;;;;;;5145754;27;20199;-39
2022/03/10 11:13:49;;;;;;;3.53;2.90;;;;;;;;;;5138938;27;20203;-36
2022/03/10 11:16:17;;;;;;;3.83;2.80;;;;;;;;;;5153688;27;20302;-33
2022/03/10 11:18:47;;;;;;;3.33;3.03;;;;;;;;;;5139495;27;20305;-33
2022/03/10 11:21:20;;;;;;;4.20;2.87;;;;;;;;;;5140632;27;20263;-35
2022/03/10 11:23:55;;;;;;;3.27;2.67;;;;;;;;;;5150292;27;20238;-37
2022/03/10 11:26:25;;;;;;;3.30;2.90;;;;;;;;;;5139764;27;20227;-40
2022/03/10 11:28:53;;;;;;;4.10;2.80;;;;;;;;;;5151584;27;20226;-35
2022/03/10 11:31:22;;;;;;;4.37;3.27;;;;;;;;;;5135679;27;20885;-34
2022/03/10 11:33:49;;;;;;;7.57;3.43;;;;;;;;;;5152427;27;20235;-35
2022/03/10 11:36:20;;;;;;;3.20;2.90;;;;;;;;;;5146642;27;20292;-37
2022/03/10 11:38:51;;;;;;;5.68;3.35;;;;;;;;;;5139776;27;20443;-31
2022/03/10 11:41:19;;;;;;;8.93;3.83;;;;;;;;;;5136288;27;20471;-37
2022/03/10 11:43:58;;;;;;;4.37;3.30;;;;;;;;;;5150209;27;20207;-34
2022/03/10 11:46:26;;;;;;;3.63;3.10;;;;;;;;;;5135530;27;20230;-32
2022/03/10 11:49:06;;;;;;;5.20;3.70;;;;;;;;;;5127305;27;20203;-37
2022/03/10 11:51:48;;;;;;;5.43;3.03;;;;;;;;;;5134000;27;20464;-36
2022/03/10 11:54:19;;;;;;;4.03;2.50;;;;;;;;;;5126763;27;20235;-31
2022/03/10 11:57:07;;;;;;;3.73;2.50;;;;;;;;;;5132793;27;20553;-33
2022/03/10 11:59:49;;;;;;;3.27;2.60;;;;;;;;;;5137023;27;20199;-31
2022/03/10 12:02:49;;;;;;;2.63;1.83;;;;;;;;;;5124105;27;20207;-34
2022/03/10 12:05:17;;;;;;;2.27;1.83;;;;;;;;;;5136515;27;20219;-37
2022/03/10 12:07:44;;;;;;;2.90;1.90;;;;;;;;;;5146472;27;20210;-34
2022/03/10 12:10:13;;;;;;;3.77;2.47;;;;;;;;;;5142198;27;20283;-34
2022/03/10 12:12:42;;;;;;;6.23;2.60;;;;;;;;;;5138222;27;20289;-42
2022/03/10 12:15:43;;;;;;;2.37;2.00;;;;;;;;;;5136456;27;20250;-34
2022/03/10 12:18:19;;;;;;;2.70;2.20;;;;;;;;;;5138312;27;20335;-37
2022/03/10 12:20:47;;;;;;;2.83;2.03;;;;;;;;;;5139197;27;20247;-33
2022/03/10 12:23:15;;;;;;;2.63;1.90;;;;;;;;;;5131356;27;20243;-33
2022/03/10 12:25:43;;;;;;;3.63;2.40;;;;;;;;;;5137925;27;20211;-36
2022/03/10 12:28:11;;;;;;;3.00;2.03;;;;;;;;;;5136700;27;20294;-32
2022/03/10 12:30:44;;;;;;;8.97;2.77;;;;;;;;;;5130169;27;20261;-34
2022/03/10 12:33:11;;;;;;;4.63;2.40;;;;;;;;;;5121770;27;20203;-35
2022/03/10 12:35:44;;;;;;;7.10;3.30;;;;;;;;;;5126478;27;20220;-31
2022/03/10 12:38:11;;;;;;;4.40;3.30;;;;;;;;;;5120216;27;20378;-36
2022/03/10 12:40:39;;;;;;;4.57;3.13;;;;;;;;;;5127560;27;20377;-36
2022/03/10 12:43:11;;;;;;;5.77;3.53;;;;;;;;;;5130598;27;20203;-31
2022/03/10 12:45:45;;;;;;;4.87;3.17;;;;;;;;;;5122208;27;20313;-34
2022/03/10 12:48:16;;;;;;;4.70;3.10;;;;;;;;;;5123891;27;20234;-41
2022/03/10 12:50:46;;;;;;;5.73;2.80;;;;;;;;;;5141374;27;20199;-36
2022/03/10 12:53:14;;;;;;;6.53;2.50;;;;;;;;;;5135153;27;20198;-39
2022/03/10 12:55:41;;;;;;;4.20;3.03;;;;;;;;;;5140668;27;20220;-35
2022/03/10 12:58:09;;;;;;;4.90;2.47;;;;;;;;;;5141027;27;20302;-38
2022/03/10 13:00:39;;;;;;;4.40;3.00;;;;;;;;;;5139650;27;20198;-33
2022/03/10 13:03:07;;;;;;;4.27;2.47;;;;;;;;;;5128328;27;20204;-41
2022/03/10 13:05:37;;;;;;;6.60;3.13;;;;;;;;;;5126443;27;20247;-30
2022/03/10 13:08:12;;;;;;;3.30;2.97;;;;;;;;;;5126711;27;20245;-34
2022/03/10 13:10:40;;;;;;;3.57;2.97;;;;;;;;;;5129947;27;20226;-34
2022/03/10 13:13:07;;;;;;;4.30;2.87;;;;;;;;;;5133686;27;20663;-33
2022/03/10 13:15:34;;;;;;;6.27;3.43;;;;;;;;;;5127400;27;20215;-34
2022/03/10 13:18:03;;;;;;;4.20;3.10;;;;;;;;;;5136728;27;20259;-31
2022/03/10 13:20:31;;;;;;;4.03;3.33;;;;;;;;;;5131277;27;20614;-37
2022/03/10 13:22:59;;;;;;;4.23;2.60;;;;;;;;;;5131476;27;20198;-32
2022/03/10 13:25:28;;;;;;;4.07;3.00;;;;;;;;;;5136752;27;20226;-33
2022/03/10 13:28:00;;;;;;;5.73;3.13;;;;;;;;;;5130152;27;20215;-33
2022/03/10 13:30:29;;;;;;;3.80;2.80;;;;;;;;;;5127492;27;20203;-34
2022/03/10 13:32:57;;;;;;;3.20;2.50;;;;;;;;;;5122234;27;20234;-35
2022/03/10 13:35:27;;;;;;;6.13;2.87;;;;;;;;;;5124664;27;20304;-37
2022/03/10 13:37:56;;;;;;;3.73;2.97;;;;;;;;;;5124627;27;20221;-32
2022/03/10 13:40:24;;;;;;;5.07;3.17;;;;;;;;;;5116298;27;20200;-37
2022/03/10 13:43:00;;;;;;;6.07;3.40;;;;;;;;;;5126561;27;20211;-37
2022/03/10 13:45:28;;;;;;;4.37;2.73;;;;;;;;;;5125892;27;20223;-37
2022/03/10 13:47:56;;;;;;;4.47;2.80;;;;;;;;;;5129473;27;20238;-41
2022/03/10 13:50:25;;;;;;;4.90;2.73;;;;;;;;;;5118209;27;20192;-38
2022/03/10 13:52:53;;;;;;;3.87;2.80;;;;;;;;;;5118804;27;20239;-36
2022/03/10 13:55:26;;;;;;;4.07;3.00;;;;;;;;;;5123990;27;20588;-34
2022/03/10 13:57:55;;;;;;;3.87;2.70;;;;;;;;;;5130720;27;20203;-38
2022/03/10 14:00:26;;;;;;;3.10;2.30;;;;;;;;;;5123099;27;20207;-34
2022/03/10 14:02:57;;;;;;;3.30;2.57;;;;;;;;;;5122701;27;20229;-41
2022/03/10 14:05:25;;;;;;;3.57;2.70;;;;;;;;;;5131737;27;20215;-34
2022/03/10 14:07:53;;;;;;;5.10;2.60;;;;;;;;;;5125395;27;20211;-39
2022/03/10 14:10:29;;;;;;;4.40;2.80;;;;;;;;;;5130027;27;20244;-37
2022/03/10 14:12:59;;;;;;;3.80;2.60;;;;;;;;;;5126157;27;20203;-32
2022/03/10 14:15:27;;;;;;;4.40;2.83;;;;;;;;;;5118081;27;20250;-36
2022/03/10 14:17:56;;;;;;;7.83;3.20;;;;;;;;;;5123913;27;20204;-36
2022/03/10 14:20:39;;;;;;;6.90;3.43;;;;;;;;;;5123427;27;20203;-38
2022/03/10 14:23:09;;;;;;;3.10;2.80;;;;;;;;;;5123491;27;20266;-37
2022/03/10 14:25:40;;;;;;;4.53;3.30;;;;;;;;;;5128933;27;20215;-39
2022/03/10 14:28:10;;;;;;;4.93;3.00;;;;;;;;;;5133138;27;20195;-35
2022/03/10 14:30:40;;;;;;;4.30;3.00;;;;;;;;;;5130545;27;20191;-38
2022/03/10 14:33:07;;;;;;;7.40;3.13;;;;;;;;;;5129475;27;20199;-32
2022/03/10 14:35:36;;;;;;;5.73;4.27;;;;;;;;;;5123166;28;20263;-37
2022/03/10 14:38:03;;;;;;;5.07;3.70;;;;;;;;;;5119761;27;20207;-33
2022/03/10 14:40:31;;;;;;;4.47;3.60;;;;;;;;;;5125339;28;20199;-35
2022/03/10 14:42:59;;;;;;;5.43;3.50;;;;;;;;;;5127563;27;20200;-36
2022/03/10 14:45:27;;;;;;;4.53;3.40;;;;;;;;;;5113363;27;20251;-38
2022/03/10 14:47:55;;;;;;;5.73;3.50;;;;;;;;;;5117147;28;20207;-39
2022/03/10 14:50:22;;;;;;;5.80;3.63;;;;;;;;;;5117869;27;20248;-34
2022/03/10 14:52:49;;;;;;;8.13;3.30;;;;;;;;;;5126348;27;20204;-34
2022/03/10 14:55:17;;;;;;;4.50;3.00;;;;;;;;;;5117961;27;20224;-35
2022/03/10 14:57:44;;;;;;;3.43;2.43;;;;;;;;;;5124034;28;20207;-32